createdAt,value
2018-09-10T00:00:12.260Z,18.30
2018-09-10T00:02:40.716Z,18.40
2018-09-10T00:05:09.309Z,18.40
2018-09-10T00:07:37.906Z,18.40
2018-09-10T00:10:06.425Z,18.40
2018-09-10T00:12:34.865Z,18.40
2018-09-10T00:15:03.350Z,18.40
2018-09-10T00:17:31.864Z,18.40
2018-09-10T00:20:00.321Z,18.50
2018-09-10T00:22:28.779Z,18.50
2018-09-10T00:24:57.357Z,18.50
2018-09-10T00:27:25.752Z,18.50
2018-09-10T00:29:54.271Z,18.50
2018-09-10T00:32:22.734Z,18.50
2018-09-10T00:34:51.288Z,18.50
2018-09-10T00:37:19.849Z,18.50
2018-09-10T00:39:48.372Z,18.50
2018-09-10T00:42:16.849Z,18.50
2018-09-10T00:44:45.329Z,18.40
2018-09-10T00:47:13.784Z,18.40
2018-09-10T00:49:42.292Z,18.30
2018-09-10T00:52:10.794Z,18.30
2018-09-10T00:54:39.552Z,18.20
2018-09-10T00:57:08.012Z,18.20
2018-09-10T00:59:36.525Z,18.20
2018-09-10T01:02:05.013Z,18.20
2018-09-10T01:04:33.596Z,18.10
2018-09-10T01:07:02.321Z,18.20
2018-09-10T01:09:30.748Z,18.10
2018-09-10T01:11:59.253Z,18.10
2018-09-10T01:14:27.739Z,18.10
2018-09-10T01:16:56.188Z,18.10
2018-09-10T01:19:24.716Z,18.10
2018-09-10T01:21:53.161Z,18.10
2018-09-10T01:24:21.644Z,18.20
2018-09-10T01:26:50.144Z,18.20
2018-09-10T01:29:18.716Z,18.20
2018-09-10T01:31:47.233Z,18.20
2018-09-10T01:34:20.936Z,18.20
2018-09-10T01:36:49.392Z,18.20
2018-09-10T01:39:17.946Z,18.20
2018-09-10T01:41:46.440Z,18.20
2018-09-10T01:44:14.923Z,18.10
2018-09-10T01:46:43.405Z,18.10
2018-09-10T01:49:11.871Z,18.10
2018-09-10T01:51:40.378Z,18.10
2018-09-10T01:54:08.850Z,18.10
2018-09-10T01:56:37.324Z,18.20
2018-09-10T01:59:05.832Z,18.20
2018-09-10T02:01:34.329Z,18.20
2018-09-10T02:04:02.764Z,18.20
2018-09-10T02:06:31.262Z,18.20
2018-09-10T02:08:59.757Z,18.20
2018-09-10T02:11:28.256Z,18.20
2018-09-10T02:13:56.742Z,18.10
2018-09-10T02:16:25.196Z,18.10
2018-09-10T02:18:53.733Z,18.10
2018-09-10T02:21:22.161Z,18.10
2018-09-10T02:23:50.657Z,18.00
2018-09-10T02:26:19.265Z,18.00
2018-09-10T02:28:47.689Z,18.00
2018-09-10T02:31:16.211Z,18.00
2018-09-10T02:33:44.645Z,18.00
2018-09-10T02:36:13.150Z,18.00
2018-09-10T02:38:41.678Z,17.90
2018-09-10T02:41:10.114Z,17.90
2018-09-10T02:43:38.616Z,17.90
2018-09-10T02:46:07.468Z,17.90
2018-09-10T02:48:35.979Z,17.80
2018-09-10T02:51:04.473Z,17.80
2018-09-10T02:53:32.925Z,17.80
2018-09-10T02:56:01.392Z,17.80
2018-09-10T02:58:29.925Z,17.80
2018-09-10T03:00:58.367Z,17.80
2018-09-10T03:03:26.869Z,17.80
2018-09-10T03:05:55.316Z,17.70
2018-09-10T03:08:23.866Z,17.70
2018-09-10T03:10:52.360Z,17.70
2018-09-10T03:13:20.833Z,17.70
2018-09-10T03:15:49.244Z,17.60
2018-09-10T03:18:17.760Z,17.70
2018-09-10T03:20:46.225Z,17.60
2018-09-10T03:23:14.724Z,17.60
2018-09-10T03:25:43.198Z,17.60
2018-09-10T03:28:11.704Z,17.60
2018-09-10T03:30:40.235Z,17.60
2018-09-10T03:33:08.794Z,17.60
2018-09-10T03:35:37.240Z,17.60
2018-09-10T03:38:05.757Z,17.60
2018-09-10T03:40:34.202Z,17.60
2018-09-10T03:43:02.684Z,17.60
2018-09-10T03:45:31.177Z,17.60
2018-09-10T03:47:59.623Z,17.60
2018-09-10T03:50:28.152Z,17.60
2018-09-10T03:52:56.596Z,17.60
2018-09-10T03:55:25.093Z,17.60
2018-09-10T03:57:53.553Z,17.60
2018-09-10T04:00:22.048Z,17.60
2018-09-10T04:02:50.572Z,17.70
2018-09-10T04:05:19.047Z,17.60
2018-09-10T04:07:47.629Z,17.60
2018-09-10T04:10:16.060Z,17.60
2018-09-10T04:12:44.545Z,17.70
2018-09-10T04:15:13.130Z,17.70
2018-09-10T04:17:41.650Z,17.70
2018-09-10T04:20:11.016Z,17.60
2018-09-10T04:22:41.144Z,17.60
2018-09-10T04:25:09.654Z,17.60
2018-09-10T04:27:38.499Z,17.60
2018-09-10T04:30:09.874Z,17.60
2018-09-10T04:32:38.372Z,17.60
2018-09-10T04:35:06.896Z,17.60
2018-09-10T04:37:35.471Z,17.60
2018-09-10T04:40:04.348Z,17.60
2018-09-10T04:42:32.795Z,17.70
2018-09-10T04:45:01.709Z,17.70
2018-09-10T04:47:30.146Z,17.70
2018-09-10T04:49:58.616Z,17.70
2018-09-10T04:52:27.133Z,17.70
2018-09-10T04:54:55.807Z,17.70
2018-09-10T04:57:24.405Z,17.70
2018-09-10T04:59:52.866Z,17.70
2018-09-10T05:02:21.380Z,17.70
2018-09-10T05:04:49.830Z,17.70
2018-09-10T05:07:18.322Z,17.70
2018-09-10T05:09:46.856Z,17.70
2018-09-10T05:12:15.325Z,17.70
2018-09-10T05:14:43.773Z,17.80
2018-09-10T05:17:12.246Z,17.80
2018-09-10T05:19:40.725Z,17.80
2018-09-10T05:22:09.307Z,17.70
2018-09-10T05:24:37.691Z,17.70
2018-09-10T05:34:05.413Z,17.70
2018-09-10T05:36:33.876Z,17.70
2018-09-10T05:39:02.565Z,17.70
2018-09-10T05:41:31.113Z,17.70
2018-09-10T05:43:59.559Z,17.70
2018-09-10T05:46:28.016Z,17.70
2018-09-10T05:48:56.498Z,17.80
2018-09-10T05:51:24.956Z,17.80
2018-09-10T05:53:53.473Z,17.80
2018-09-10T05:56:21.947Z,17.80
2018-09-10T05:58:50.440Z,17.80
2018-09-10T06:01:18.937Z,17.90
2018-09-10T06:03:47.380Z,17.90
2018-09-10T06:06:15.889Z,18.00
2018-09-10T06:08:44.374Z,18.00
2018-09-10T06:11:12.817Z,18.10
2018-09-10T06:13:41.332Z,18.10
2018-09-10T06:16:09.838Z,18.10
2018-09-10T06:18:38.348Z,18.20
2018-09-10T06:21:06.853Z,18.20
2018-09-10T06:23:35.352Z,18.30
2018-09-10T06:26:03.877Z,18.30
2018-09-10T06:28:32.325Z,18.30
2018-09-10T06:31:00.812Z,18.30
2018-09-10T06:33:29.284Z,18.30
2018-09-10T06:35:57.780Z,18.30
2018-09-10T06:38:26.231Z,18.30
2018-09-10T06:40:54.851Z,18.40
2018-09-10T06:43:23.382Z,18.50
2018-09-10T06:45:52.419Z,18.50
2018-09-10T06:48:20.982Z,18.60
2018-09-10T06:50:49.664Z,18.60
2018-09-10T06:53:18.210Z,18.60
2018-09-10T06:55:46.737Z,18.70
2018-09-10T06:58:15.213Z,18.70
2018-09-10T07:00:43.717Z,18.70
2018-09-10T07:03:12.252Z,18.60
2018-09-10T07:05:40.804Z,18.60
2018-09-10T07:08:09.311Z,18.70
2018-09-10T07:10:37.847Z,18.70
2018-09-10T07:13:06.592Z,18.80
2018-09-10T07:15:35.198Z,18.80
2018-09-10T07:18:03.729Z,18.80
2018-09-10T07:20:32.160Z,18.90
2018-09-10T07:23:00.664Z,19.00
2018-09-10T07:25:29.123Z,19.00
2018-09-10T07:27:57.593Z,19.00
2018-09-10T07:30:26.117Z,19.10
2018-09-10T07:32:54.557Z,19.20
2018-09-10T07:35:23.053Z,19.20
2018-09-10T07:37:51.512Z,19.20
2018-09-10T07:40:20.027Z,19.20
2018-09-10T07:42:48.601Z,19.30
2018-09-10T07:45:17.132Z,19.30
2018-09-10T07:47:45.540Z,19.30
2018-09-10T07:50:14.059Z,19.40
2018-09-10T07:52:42.532Z,19.50
2018-09-10T07:55:11.016Z,19.60
2018-09-10T07:57:39.563Z,19.70
2018-09-10T08:00:08.793Z,19.80
2018-09-10T08:02:37.295Z,19.80
2018-09-10T08:05:05.866Z,19.70
2018-09-10T08:07:34.333Z,19.80
2018-09-10T08:10:02.845Z,19.80
2018-09-10T08:12:31.405Z,19.70
2018-09-10T08:14:59.881Z,19.60
2018-09-10T08:17:28.350Z,19.50
2018-09-10T08:19:56.931Z,19.50
2018-09-10T08:22:25.344Z,19.60
2018-09-10T08:24:53.887Z,19.50
2018-09-10T08:27:22.402Z,19.40
2018-09-10T08:29:50.929Z,19.50
2018-09-10T08:32:19.350Z,19.60
2018-09-10T08:34:47.868Z,19.70
2018-09-10T08:37:16.307Z,19.70
2018-09-10T08:39:44.805Z,19.80
2018-09-10T08:42:13.497Z,20.00
2018-09-10T08:44:41.984Z,20.20
2018-09-10T08:47:10.452Z,20.20
2018-09-10T08:49:38.954Z,20.40
2018-09-10T08:52:07.431Z,20.50
2018-09-10T08:54:36.287Z,20.60
2018-09-10T08:58:07.658Z,20.70
2018-09-10T09:00:36.149Z,20.80
2018-09-10T09:03:04.944Z,20.80
2018-09-10T09:05:33.432Z,20.90
2018-09-10T09:08:01.916Z,20.90
2018-09-10T09:10:30.437Z,21.00
2018-09-10T09:12:58.867Z,21.10
2018-09-10T09:15:27.988Z,21.10
2018-09-10T09:17:57.157Z,21.20
2018-09-10T09:20:25.638Z,21.30
2018-09-10T09:22:54.115Z,21.50
2018-09-10T09:25:22.924Z,21.60
2018-09-10T09:27:51.377Z,21.70
2018-09-10T09:30:20.016Z,21.70
2018-09-10T09:32:48.458Z,21.70
2018-09-10T09:35:17.055Z,21.90
2018-09-10T09:37:50.854Z,22.00
2018-09-10T09:40:24.670Z,22.00
2018-09-10T09:42:58.475Z,22.30
2018-09-10T09:45:32.282Z,22.40
2018-09-10T09:48:00.743Z,22.50
2018-09-10T09:50:29.237Z,22.40
2018-09-10T09:52:57.820Z,22.50
2018-09-10T09:55:26.288Z,22.40
2018-09-10T09:57:54.761Z,22.50
2018-09-10T10:00:28.607Z,22.40
2018-09-10T10:02:57.532Z,22.40
2018-09-10T10:05:25.957Z,22.40
2018-09-10T10:07:54.443Z,22.50
2018-09-10T10:10:23.091Z,22.60
2018-09-10T10:12:51.379Z,22.90
2018-09-10T10:15:20.226Z,23.10
2018-09-10T10:17:48.674Z,23.20
2018-09-10T10:20:17.166Z,23.20
2018-09-10T10:22:45.736Z,23.30
2018-09-10T10:25:14.225Z,23.30
2018-09-10T10:27:42.741Z,23.30
2018-09-10T10:30:11.217Z,23.30
2018-09-10T10:32:39.669Z,23.40
2018-09-10T10:35:08.193Z,23.40
2018-09-10T10:37:37.628Z,23.50
2018-09-10T10:40:06.197Z,23.60
2018-09-10T10:42:34.617Z,23.80
2018-09-10T10:45:03.129Z,24.00
2018-09-10T10:47:31.625Z,23.80
2018-09-10T10:50:00.077Z,23.90
2018-09-10T10:52:28.564Z,23.80
2018-09-10T10:54:57.088Z,23.60
2018-09-10T10:57:25.516Z,23.50
2018-09-10T10:59:54.116Z,23.60
2018-09-10T11:02:22.582Z,23.80
2018-09-10T11:04:51.069Z,23.70
2018-09-10T11:07:19.521Z,23.70
2018-09-10T11:09:48.067Z,23.80
2018-09-10T11:12:16.565Z,24.10
2018-09-10T11:14:45.002Z,24.30
2018-09-10T11:17:13.483Z,24.20
2018-09-10T11:19:42.055Z,24.20
2018-09-10T11:22:10.560Z,24.20
2018-09-10T11:24:39.017Z,24.10
2018-09-10T11:27:07.525Z,24.20
2018-09-10T11:29:36.097Z,24.40
2018-09-10T11:32:04.546Z,24.30
2018-09-10T11:34:33.072Z,24.20
2018-09-10T11:37:01.505Z,24.20
2018-09-10T11:39:30.023Z,23.90
2018-09-10T11:41:58.525Z,24.10
2018-09-10T11:44:27.023Z,24.20
2018-09-10T11:46:55.450Z,24.20
2018-09-10T11:49:23.950Z,24.30
2018-09-10T11:51:52.415Z,24.40
2018-09-10T11:54:20.911Z,24.50
2018-09-10T11:56:49.356Z,24.50
2018-09-10T11:59:17.925Z,24.40
2018-09-10T12:01:46.472Z,24.50
2018-09-10T12:04:14.928Z,24.50
2018-09-10T12:06:43.653Z,24.60
2018-09-10T12:09:12.372Z,24.80
2018-09-10T12:11:41.125Z,24.80
2018-09-10T12:14:09.612Z,24.80
2018-09-10T12:16:39.373Z,24.80
2018-09-10T12:19:07.953Z,24.60
2018-09-10T12:21:36.539Z,24.70
2018-09-10T12:24:05.051Z,24.60
2018-09-10T12:26:33.565Z,24.70
2018-09-10T12:29:01.995Z,24.80
2018-09-10T12:31:30.498Z,24.80
2018-09-10T12:33:58.961Z,24.70
2018-09-10T12:36:27.461Z,24.60
2018-09-10T12:38:56.081Z,24.60
2018-09-10T12:41:24.526Z,24.50
2018-09-10T12:43:52.985Z,24.40
2018-09-10T12:46:21.539Z,24.40
2018-09-10T12:48:50.040Z,24.40
2018-09-10T12:51:18.589Z,24.30
2018-09-10T12:53:47.001Z,24.20
2018-09-10T12:56:15.516Z,24.30
2018-09-10T12:58:44.097Z,24.40
2018-09-10T13:01:12.608Z,24.50
2018-09-10T13:03:41.030Z,24.40
2018-09-10T13:06:09.564Z,24.50
2018-09-10T13:08:38.145Z,24.50
2018-09-10T13:11:07.628Z,24.60
2018-09-10T13:13:36.093Z,24.60
2018-09-10T13:16:04.618Z,24.50
2018-09-10T13:18:33.116Z,24.40
2018-09-10T13:21:01.901Z,24.40
2018-09-10T13:23:30.400Z,24.20
2018-09-10T13:25:58.924Z,23.80
2018-09-10T13:28:27.396Z,24.00
2018-09-10T13:30:55.877Z,24.00
2018-09-10T13:33:24.358Z,24.00
2018-09-10T13:35:52.882Z,24.10
2018-09-10T13:38:21.338Z,24.10
2018-09-10T13:40:49.818Z,24.20
2018-09-10T13:43:18.293Z,24.20
2018-09-10T13:45:46.837Z,24.20
2018-09-10T13:48:15.258Z,24.40
2018-09-10T13:50:43.737Z,24.30
2018-09-10T13:53:12.208Z,24.20
2018-09-10T13:55:40.718Z,24.20
2018-09-10T13:58:09.719Z,24.20
2018-09-10T14:00:38.176Z,24.40
2018-09-10T14:03:06.656Z,24.10
2018-09-10T14:05:36.193Z,24.10
2018-09-10T14:08:04.680Z,24.00
2018-09-10T14:10:33.225Z,23.90
2018-09-10T14:13:01.687Z,24.00
2018-09-10T14:15:30.204Z,23.90
2018-09-10T14:17:58.704Z,23.70
2018-09-10T14:20:27.284Z,23.90
2018-09-10T14:22:55.729Z,23.60
2018-09-10T14:25:24.256Z,23.60
2018-09-10T14:27:52.749Z,23.60
2018-09-10T14:30:21.190Z,23.50
2018-09-10T14:32:49.736Z,23.30
2018-09-10T14:35:18.305Z,23.20
2018-09-10T14:37:46.753Z,23.10
2018-09-10T14:40:15.241Z,23.10
2018-09-10T14:42:43.712Z,23.10
2018-09-10T14:45:12.274Z,23.10
2018-09-10T14:47:41.926Z,23.10
2018-09-10T14:50:10.440Z,23.20
2018-09-10T14:52:38.958Z,23.30
2018-09-10T14:55:07.442Z,23.40
2018-09-10T14:57:35.950Z,23.30
2018-09-10T15:00:04.769Z,23.10
2018-09-10T15:02:33.204Z,23.20
2018-09-10T15:05:01.679Z,23.20
2018-09-10T15:07:30.180Z,23.20
2018-09-10T15:09:58.655Z,23.20
2018-09-10T15:12:27.575Z,23.20
2018-09-10T15:14:56.007Z,23.10
2018-09-10T15:17:24.569Z,23.00
2018-09-10T15:19:53.393Z,23.00
2018-09-10T15:22:21.889Z,23.00
2018-09-10T15:24:50.335Z,23.10
2018-09-10T15:27:18.869Z,22.90
2018-09-10T15:29:47.455Z,22.90
2018-09-10T15:32:15.918Z,22.90
2018-09-10T15:34:44.506Z,22.90
2018-09-10T15:37:12.985Z,23.00
2018-09-10T15:39:41.478Z,22.90
2018-09-10T15:42:09.957Z,22.90
2018-09-10T15:44:38.407Z,22.90
2018-09-10T15:47:06.957Z,22.90
2018-09-10T15:49:35.522Z,22.90
2018-09-10T15:52:04.012Z,23.00
2018-09-10T15:54:32.757Z,22.90
2018-09-10T15:57:01.365Z,22.90
2018-09-10T15:59:30.021Z,22.80
2018-09-10T16:01:59.126Z,22.80
2018-09-10T16:04:27.978Z,22.80
2018-09-10T16:06:56.864Z,22.70
2018-09-10T16:09:25.444Z,22.70
2018-09-10T16:11:54.498Z,22.70
2018-09-10T16:14:23.201Z,22.70
2018-09-10T16:16:52.305Z,22.70
2018-09-10T16:19:22.200Z,22.60
2018-09-10T16:21:51.509Z,22.70
2018-09-10T16:24:20.779Z,22.60
2018-09-10T16:26:49.764Z,22.50
2018-09-10T16:29:18.264Z,22.40
2018-09-10T16:31:46.788Z,22.40
2018-09-10T16:34:15.250Z,22.40
2018-09-10T16:36:44.880Z,22.40
2018-09-10T16:39:14.002Z,22.40
2018-09-10T16:41:46.181Z,22.30
2018-09-10T16:44:15.280Z,22.30
2018-09-10T16:46:43.774Z,22.30
2018-09-10T16:49:12.342Z,22.30
2018-09-10T16:51:40.831Z,22.30
2018-09-10T16:54:09.433Z,22.30
2018-09-10T16:56:37.793Z,22.20
2018-09-10T16:59:06.324Z,22.20
2018-09-10T17:01:34.834Z,22.20
2018-09-10T17:04:03.361Z,22.10
2018-09-10T17:06:31.835Z,22.10
2018-09-10T17:09:00.340Z,22.10
2018-09-10T17:11:28.819Z,22.10
2018-09-10T17:13:57.328Z,22.10
2018-09-10T17:16:25.766Z,22.10
2018-09-10T17:18:54.268Z,22.10
2018-09-10T17:21:22.719Z,22.10
2018-09-10T17:23:51.233Z,22.00
2018-09-10T17:26:19.696Z,22.00
2018-09-10T17:28:48.213Z,22.00
2018-09-10T17:31:16.643Z,22.00
2018-09-10T17:33:45.146Z,22.00
2018-09-10T17:36:13.576Z,22.00
2018-09-10T17:38:42.193Z,21.90
2018-09-10T17:41:10.754Z,21.90
2018-09-10T17:43:39.305Z,21.80
2018-09-10T17:46:07.848Z,21.80
2018-09-10T17:48:36.474Z,21.80
2018-09-10T17:51:04.909Z,21.70
2018-09-10T17:53:33.404Z,21.70
2018-09-10T17:56:01.944Z,21.60
2018-09-10T17:58:30.486Z,21.50
2018-09-10T18:00:58.968Z,21.50
2018-09-10T18:03:27.436Z,21.50
2018-09-10T18:05:55.888Z,21.40
2018-09-10T18:08:24.427Z,21.40
2018-09-10T18:10:53.300Z,21.30
2018-09-10T18:13:21.883Z,21.30
2018-09-10T18:15:50.506Z,21.30
2018-09-10T18:18:18.957Z,21.20
2018-09-10T18:20:47.406Z,21.20
2018-09-10T18:23:16.128Z,21.20
2018-09-10T18:25:44.621Z,21.10
2018-09-10T18:28:14.233Z,21.10
2018-09-10T18:30:43.712Z,21.10
2018-09-10T18:33:12.337Z,21.10
2018-09-10T18:35:41.094Z,21.10
2018-09-10T18:38:09.739Z,21.00
2018-09-10T18:40:38.278Z,21.00
2018-09-10T18:43:07.096Z,21.10
2018-09-10T18:45:35.949Z,21.10
2018-09-10T18:48:04.497Z,21.10
2018-09-10T18:50:33.022Z,21.10
2018-09-10T18:53:01.609Z,21.10
2018-09-10T18:55:30.049Z,21.10
2018-09-10T18:57:59.560Z,21.10
2018-09-10T19:00:28.309Z,21.10
2018-09-10T19:02:56.984Z,21.10
2018-09-10T19:05:25.576Z,21.00
2018-09-10T19:07:54.291Z,21.00
2018-09-10T19:10:22.994Z,21.00
2018-09-10T19:12:51.718Z,20.90
2018-09-10T19:15:20.575Z,20.80
2018-09-10T19:17:49.488Z,20.80
2018-09-10T19:20:18.229Z,20.70
2018-09-10T19:22:47.072Z,20.60
2018-09-10T19:25:15.770Z,20.60
2018-09-10T19:27:44.309Z,20.50
2018-09-10T19:30:12.907Z,20.40
2018-09-10T19:32:41.598Z,20.40
2018-09-10T19:35:10.105Z,20.30
2018-09-10T19:37:38.638Z,20.30
2018-09-10T19:40:07.061Z,20.30
2018-09-10T19:42:35.572Z,20.20
2018-09-10T19:45:04.189Z,20.20
2018-09-10T19:47:32.680Z,20.20
2018-09-10T19:50:01.164Z,20.20
2018-09-10T19:52:29.636Z,20.10
2018-09-10T19:54:58.120Z,20.10
2018-09-10T19:57:26.710Z,20.10
2018-09-10T19:59:55.203Z,20.10
2018-09-10T20:02:23.690Z,20.10
2018-09-10T20:04:52.151Z,20.10
2018-09-10T20:07:20.842Z,20.10
2018-09-10T20:09:49.380Z,20.20
2018-09-10T20:12:17.802Z,20.20
2018-09-10T20:14:46.276Z,20.20
2018-09-10T20:17:14.779Z,20.10
2018-09-10T20:19:43.240Z,20.10
2018-09-10T20:22:15.331Z,20.00
2018-09-10T20:24:43.828Z,20.00
2018-09-10T20:27:12.502Z,20.00
2018-09-10T20:29:40.961Z,20.00
2018-09-10T20:32:09.917Z,20.00
2018-09-10T20:34:38.529Z,20.00
2018-09-10T20:37:07.082Z,19.90
2018-09-10T20:39:35.678Z,20.00
2018-09-10T20:42:04.265Z,19.90
2018-09-10T20:44:32.780Z,19.90
2018-09-10T20:47:01.248Z,19.90
2018-09-10T20:49:29.776Z,19.90
2018-09-10T20:51:58.239Z,19.90
2018-09-10T20:54:26.752Z,19.80
2018-09-10T20:56:55.160Z,19.90
2018-09-10T20:59:24.585Z,19.80
2018-09-10T21:01:53.102Z,19.80
2018-09-10T21:04:21.537Z,19.80
2018-09-10T21:06:50.017Z,19.80
2018-09-10T21:09:18.517Z,19.70
2018-09-10T21:11:47.059Z,19.70
2018-09-10T21:14:15.723Z,19.70
2018-09-10T21:16:44.148Z,19.70
2018-09-10T21:19:12.700Z,19.60
2018-09-10T21:21:41.297Z,19.60
2018-09-10T21:24:09.814Z,19.70
2018-09-10T21:26:38.336Z,19.60
2018-09-10T21:29:06.760Z,19.60
2018-09-10T21:31:36.245Z,19.60
2018-09-10T21:34:04.793Z,19.60
2018-09-10T21:36:33.257Z,19.50
2018-09-10T21:39:01.768Z,19.50
2018-09-10T21:41:30.431Z,19.50
2018-09-10T21:43:58.920Z,19.50
2018-09-10T21:46:27.454Z,19.40
2018-09-10T21:48:55.966Z,19.50
2018-09-10T21:51:24.550Z,19.40
2018-09-10T21:53:53.143Z,19.40
2018-09-10T21:56:21.696Z,19.40
2018-09-10T21:58:51.229Z,19.40
2018-09-10T22:01:19.737Z,19.30
2018-09-10T22:03:48.224Z,19.30
2018-09-10T22:06:16.794Z,19.30
2018-09-10T22:08:45.275Z,19.30
2018-09-10T22:11:13.752Z,19.30
2018-09-10T22:13:42.250Z,19.20
2018-09-10T22:16:10.829Z,19.20
2018-09-10T22:18:39.469Z,19.20
2018-09-10T22:21:07.995Z,19.20
2018-09-10T22:23:36.444Z,19.10
2018-09-10T22:26:06.157Z,19.10
2018-09-10T22:28:34.665Z,19.10
2018-09-10T22:31:03.166Z,19.00
2018-09-10T22:33:31.704Z,19.10
2018-09-10T22:36:00.241Z,19.10
2018-09-10T22:38:28.798Z,19.00
2018-09-10T22:40:57.288Z,19.00
2018-09-10T22:43:25.770Z,19.00
2018-09-10T22:45:54.218Z,19.00
2018-09-10T22:48:22.741Z,18.90
2018-09-10T22:50:51.327Z,18.90
2018-09-10T22:53:19.744Z,18.90
2018-09-10T22:55:48.259Z,18.90
2018-09-10T22:58:16.719Z,18.90
2018-09-10T23:00:45.346Z,18.90
2018-09-10T23:03:13.780Z,18.90
2018-09-10T23:05:43.362Z,18.80
2018-09-10T23:08:11.985Z,18.80
2018-09-10T23:10:40.461Z,18.70
2018-09-10T23:13:08.962Z,18.70
2018-09-10T23:15:37.433Z,18.70
2018-09-10T23:18:05.925Z,18.70
2018-09-10T23:20:34.377Z,18.60
2018-09-10T23:23:02.893Z,18.60
2018-09-10T23:25:31.429Z,18.60
2018-09-10T23:27:59.931Z,18.60
2018-09-10T23:31:31.568Z,18.50
2018-09-10T23:34:00.083Z,18.50
2018-09-10T23:36:28.538Z,18.40
2018-09-10T23:38:56.978Z,18.40
2018-09-10T23:41:25.421Z,18.40
2018-09-10T23:43:53.937Z,18.30
2018-09-10T23:46:22.478Z,18.30
2018-09-10T23:48:51.096Z,18.30
2018-09-10T23:51:19.533Z,18.30
2018-09-10T23:53:48.033Z,18.30
2018-09-10T23:56:16.538Z,18.20
2018-09-10T23:58:45.031Z,18.20
